Sant Martí Sacalm





Hora UTC 12:55
Temperatura 19.9 ºC
Humitat 65.6 %
Pressió 1018.8 hPa
Pluja 0.1 mm
Velocitat vent 7.3 km/h
Direcció vent SSE
Radiació solar 772.5 W/m²

Dades diàries 2021-09-19



Hora UTC (hivern +1h; estiu +2h)
Temperatura (ºC) Humitat (%) Pressió (hPa) Velocitat vent (km/h) Precipitació (mm) Radiació solar (W/m²)
Hora UTC Aire Humitat Pressió Vel. Dir. Vel. Max Dir. Intent. màx 5 min. Rad. Sol.
00:05 15.8 100.0 1016.0 3.3 WSW 3.3 SW 0.0 0.1
00:10 15.6 99.7 1016.0 1.8 W 4.6 W 0.0 0.1
00:15 15.3 99.5 1016.1 1.3 NNE 3.5 NE 0.0 0.1
00:20 15.1 99.7 1016.1 2.7 E 4.2 ESE 0.0 0.1
00:25 15.2 100.0 1016.2 1.6 S 5.0 S 0.0 0.1
00:30 15.2 99.9 1016.3 2.5 W 5.0 WSW 0.0 0.1
00:35 15.4 100.0 1016.2 6.2 S 11.3 SSE 0.0 0.1
00:40 15.5 100.0 1016.2 4.2 SSW 11.3 SW 0.0 0.1
00:45 15.5 100.0 1016.2 4.1 SSW 8.8 S 0.0 0.1
00:50 15.4 99.9 1016.3 2.8 SW 8.5 WSW 0.0 0.1
00:55 15.2 99.9 1016.3 6.3 SSW 12.4 WSW 0.0 0.1
01:00 15.1 100.0 1016.2 10.3 SSW 17.7 SW 0.0 0.1
01:05 15.3 100.0 1016.2 12.1 SW 16.6 SW 0.0 0.1
01:10 15.4 100.0 1016.1 11.2 SW 15.9 SW 0.0 0.1
01:15 15.4 100.0 1016.1 12.3 SW 17.3 SW 0.0 0.1
01:20 15.4 100.0 1016.1 11.5 SW 16.6 SW 0.0 0.1
01:25 15.4 100.0 1016.1 13.1 SW 17.7 SSW 0.0 0.1
01:30 15.3 100.0 1016.1 12.2 SSW 16.6 SW 0.0 0.1
01:35 15.3 100.0 1016.1 12.4 SW 17.7 SSW 0.0 0.1
01:40 15.3 100.0 1016.1 10.8 SW 15.2 SW 0.0 0.1
01:45 15.3 100.0 1016.1 12.2 SSW 15.9 SW 0.0 0.1
01:50 15.3 100.0 1016.2 10.3 SSW 14.8 SSW 0.0 0.1
01:55 15.1 100.0 1016.2 11.5 SSW 17.3 SW 0.0 0.1
02:00 15.0 100.0 1016.2 11.1 SSW 15.9 SW 0.0 0.1
02:05 15.0 100.0 1016.2 11.0 SSW 15.5 SSW 0.0 0.1
02:10 14.9 100.0 1016.2 15.9 SW 20.8 SSW 0.0 0.1
02:15 14.8 100.0 1016.2 16.0 SW 21.9 SW 0.0 0.1
02:20 14.7 100.0 1016.2 12.4 SW 18.0 SW 0.0 0.1
02:25 14.6 100.0 1016.3 9.8 SW 15.5 SSW 0.0 0.1
02:30 14.6 100.0 1016.3 10.5 SSW 14.5 SSW 0.0 0.1
02:35 14.6 100.0 1016.3 10.6 SSW 14.5 SW 0.0 0.1
02:40 14.5 100.0 1016.3 12.2 SSW 15.5 SSW 0.0 0.1
02:45 14.3 100.0 1016.3 11.6 SW 15.2 SW 0.0 0.1
02:50 14.2 100.0 1016.3 9.7 SW 13.1 SW 0.0 0.1
02:55 14.1 100.0 1016.3 11.5 SW 15.2 SW 0.0 0.1
03:00 14.0 99.9 1016.3 12.4 WSW 17.0 WSW 0.0 0.1
03:05 13.9 99.9 1016.2 12.6 SW 19.1 SW 0.0 0.1
03:10 13.8 99.7 1016.2 11.4 SW 16.2 WSW 0.0 0.1
03:15 13.8 99.7 1016.2 11.2 SW 14.5 SW 0.0 0.1
03:20 13.6 99.5 1016.2 11.5 SW 19.8 WSW 0.0 0.1
03:25 13.6 99.4 1016.2 13.3 SW 19.4 SW 0.0 0.1
03:30 13.5 99.2 1016.2 14.3 SW 19.1 WSW 0.0 0.1
03:35 13.5 99.2 1016.3 13.8 SW 19.1 SW 0.0 0.1
03:40 13.4 99.3 1016.2 18.5 SW 23.7 SW 0.0 0.1
03:45 13.3 98.8 1016.1 18.7 SW 23.0 WSW 0.1 0.1
03:50 13.2 97.6 1016.1 17.2 WSW 24.0 WSW 0.0 0.1
03:55 13.2 96.6 1016.1 15.0 WSW 21.9 WSW 0.0 0.1
04:00 13.2 95.3 1016.3 14.3 SW 19.8 WSW 0.0 0.1
04:05 13.1 95.3 1016.3 12.9 SW 18.4 WSW 0.0 0.1
04:10 13.0 95.3 1016.3 14.4 WSW 20.5 WSW 0.0 0.1
04:15 13.1 94.1 1016.3 16.8 WSW 24.7 WSW 0.0 0.1
04:20 13.0 93.9 1016.3 14.6 WSW 19.1 WSW 0.0 0.1
04:25 12.9 94.0 1016.3 10.6 WSW 17.7 SW 0.0 0.1
04:30 12.9 93.4 1016.4 12.4 WSW 16.6 WSW 0.0 0.1
04:35 12.8 92.8 1016.4 11.7 WSW 14.8 WSW 0.0 0.1
04:40 12.7 93.8 1016.4 10.8 WSW 14.1 WSW 0.0 0.1
04:45 12.6 94.0 1016.5 10.6 WSW 14.5 SW 0.0 0.1
04:50 12.6 94.5 1016.6 11.3 WSW 15.2 WSW 0.0 0.1
04:55 12.7 94.4 1016.6 7.4 WSW 10.6 WSW 0.0 0.1
05:00 12.6 94.7 1016.7 5.0 SW 6.7 SSW 0.0 0.1
05:05 12.5 95.3 1016.7 5.5 SW 8.1 SW 0.0 0.1
05:10 12.6 95.2 1016.7 5.9 SW 9.5 SSW 0.0 0.1
05:15 12.6 94.2 1016.8 7.4 SW 12.0 WSW 0.0 0.1
05:20 12.5 94.4 1016.8 9.3 SW 13.4 WSW 0.0 0.2
05:25 12.4 95.4 1016.9 9.8 SW 12.7 WSW 0.0 0.9
05:30 12.3 96.4 1016.9 8.9 SW 11.0 WSW 0.0 2.0
05:35 12.1 97.0 1016.9 9.1 SW 11.7 SW 0.0 3.7
05:40 12.0 97.7 1017.0 8.2 SW 10.3 SW 0.0 6.0
05:45 11.9 98.1 1017.0 9.3 SW 11.0 SW 0.0 8.7
05:50 11.8 98.4 1017.1 9.0 SW 11.3 SW 0.0 33.5
05:55 11.8 98.8 1017.2 9.3 SW 12.0 SW 0.0 52.4
06:00 11.7 99.0 1017.3 11.6 SW 14.5 SW 0.0 74.5
06:05 11.7 99.3 1017.3 11.1 SW 14.1 SW 0.0 60.0
06:10 11.8 99.5 1017.4 11.3 WSW 13.8 WSW 0.0 39.5
06:15 11.8 99.5 1017.4 11.7 SW 15.9 WSW 0.0 50.3
06:20 11.8 99.6 1017.5 10.9 SW 14.8 SW 0.0 53.2
06:25 11.8 99.7 1017.6 11.0 WSW 16.2 WSW 0.0 76.3
06:30 11.8 99.7 1017.6 11.0 SW 16.2 SW 0.0 82.4
06:35 11.8 99.8 1017.7 11.5 SW 13.8 SW 0.0 160.5
06:40 11.8 99.8 1017.7 10.2 SW 13.4 SW 0.0 147.1
06:45 11.8 99.9 1017.8 11.5 SW 15.2 WSW 0.0 106.1
06:50 11.8 99.8 1017.8 12.2 SW 15.9 WSW 0.0 141.4
06:55 11.8 99.9 1017.8 12.2 SW 15.5 SSW 0.0 159.0
07:00 11.6 99.7 1017.8 12.8 SW 16.6 SW 0.0 213.5
07:05 11.6 99.9 1017.8 12.5 SW 16.2 SW 0.0 270.3
07:10 11.7 100.0 1017.8 12.9 SW 17.3 SW 0.0 280.6
07:15 11.8 100.0 1017.8 12.3 SW 14.8 SW 0.0 277.4
07:20 11.8 99.9 1017.9 10.2 SW 13.1 SW 0.0 249.8
07:25 11.8 99.9 1018.0 10.2 SW 12.0 SW 0.0 267.5
07:30 12.0 99.9 1018.0 8.8 SW 11.3 SW 0.0 313.8
07:35 12.1 99.8 1018.1 8.9 SW 11.7 SSW 0.0 352.1
07:40 12.1 99.8 1018.1 10.0 SSW 12.7 SSW 0.0 316.9
07:45 12.3 99.9 1018.1 9.3 SSW 11.7 SSW 0.0 378.0
07:50 12.5 99.9 1018.1 8.3 SW 11.7 WSW 0.0 419.4
07:55 12.6 99.6 1018.2 7.9 SW 11.0 SW 0.0 436.0
08:00 12.8 99.5 1018.3 5.8 SW 8.1 SW 0.0 485.9
08:05 13.3 99.5 1018.4 2.7 WNW 6.4 N 0.0 503.0
08:10 14.2 99.7 1018.4 3.4 E 6.7 ESE 0.0 351.6
08:15 14.3 98.3 1018.4 2.4 SW 5.3 SW 0.0 436.1
08:20 14.3 97.4 1018.5 1.4 NNW 3.9 NW 0.0 223.0
08:25 14.2 96.8 1018.5 0.4 SW 3.2 SW 0.0 170.8
08:30 13.8 95.8 1018.6 4.0 SW 7.4 SW 0.0 391.0
08:35 14.1 95.1 1018.6 7.5 SW 9.5 SW 0.0 548.2
08:40 14.1 92.1 1018.7 6.4 SW 9.5 SW 0.0 553.4
08:45 14.2 91.4 1018.6 7.7 SW 10.3 SW 0.0 565.0
08:50 14.2 91.3 1018.7 9.5 SSW 12.0 SSW 0.0 572.9
08:55 14.3 91.7 1018.7 10.5 SW 12.7 SSW 0.0 589.9
09:00 14.4 90.7 1018.8 11.2 SW 13.1 SW 0.0 609.9
09:05 14.4 91.2 1018.9 11.5 SW 14.8 SW 0.0 615.0
09:10 14.6 90.8 1018.9 10.5 SW 13.4 SW 0.0 636.9
09:15 14.7 90.7 1018.9 8.8 SW 12.4 SSW 0.0 653.4
09:20 15.0 89.4 1019.0 8.5 SW 12.0 SW 0.0 677.0
09:25 15.2 87.7 1019.0 8.4 SW 14.1 SW 0.0 539.1
09:30 15.5 87.6 1019.1 6.6 SSW 10.6 SW 0.0 600.2
09:35 15.5 86.5 1019.1 8.0 SSW 11.0 SSW 0.0 581.1
09:40 15.7 84.7 1019.2 6.5 SW 11.0 SW 0.0 507.5
09:45 16.0 79.4 1019.2 6.9 SW 9.9 SW 0.0 691.4
09:50 16.1 78.4 1019.2 6.5 SW 8.8 WSW 0.0 570.4
09:55 16.1 77.4 1019.2 4.3 SW 9.2 SW 0.0 724.5
10:00 16.5 75.7 1019.2 6.2 SSW 9.9 S 0.0 740.8
10:05 16.9 73.9 1019.2 5.7 S 9.5 S 0.0 701.4
10:10 17.0 72.2 1019.2 4.3 SSW 8.5 S 0.0 712.7
10:15 17.0 72.3 1019.2 5.6 SW 9.2 SW 0.0 772.7
10:20 17.1 75.7 1019.2 6.7 SW 10.3 SW 0.0 767.9
10:25 17.3 75.2 1019.1 6.1 SSW 11.3 SW 0.0 623.2
10:30 17.3 71.1 1019.1 7.6 SW 11.7 SW 0.0 774.2
10:35 17.4 69.9 1019.1 7.7 SW 11.0 SW 0.0 754.6
10:40 17.4 70.8 1019.1 6.9 SW 10.3 WSW 0.0 753.8
10:45 17.7 69.5 1019.1 5.8 SW 10.3 SSW 0.0 820.0
10:50 17.8 67.7 1019.1 7.8 SW 11.3 SW 0.0 822.0
10:55 17.9 69.0 1019.0 7.6 WSW 11.7 WSW 0.0 805.0
11:00 18.1 70.9 1019.0 5.8 W 10.3 W 0.0 748.9
11:05 18.0 70.1 1019.1 5.1 W 10.3 WSW 0.0 725.5
11:10 17.9 72.1 1019.0 5.5 W 8.5 WSW 0.0 535.0
11:15 18.0 71.7 1019.0 4.6 WNW 7.4 NW 0.0 689.0
11:20 18.1 72.8 1019.0 5.0 NW 9.2 NW 0.0 590.0
11:25 17.8 74.4 1019.1 5.3 NNW 11.0 NNW 0.0 448.6
11:30 17.7 78.2 1019.1 8.2 ENE 16.6 NNE 0.0 181.5
11:35 17.8 79.1 1019.1 10.9 E 17.7 E 0.0 172.6
11:40 17.7 78.2 1019.1 9.1 ENE 18.7 ENE 0.0 182.0
11:45 17.6 79.8 1019.1 5.8 NNE 11.3 ENE 0.0 399.3
11:50 17.6 78.7 1019.1 4.1 N 12.7 NNE 0.0 269.8
11:55 17.9 78.9 1019.1 2.7 NNE 8.5 NE 0.0 674.8
12:00 18.7 75.6 1019.1 4.9 ENE 10.6 NE 0.0 312.6
12:05 18.6 76.4 1019.1 5.8 NE 12.7 NNE 0.0 577.0
12:10 19.1 75.6 1019.1 4.0 E 11.3 NE 0.0 827.0
12:15 19.6 71.3 1019.0 6.8 ESE 9.2 ESE 0.0 872.0
12:20 20.1 68.3 1019.0 3.0 WSW 9.2 SW 0.0 804.0
12:25 19.9 69.1 1019.0 3.1 W 8.5 WSW 0.0 824.0
12:30 20.3 66.0 1018.9 8.2 S 13.8 SW 0.0 817.0
12:35 20.1 66.3 1018.9 8.5 SSE 13.4 SSE 0.0 579.8
12:40 19.9 65.5 1018.9 8.2 S 14.5 SSW 0.0 808.0
12:45 19.8 65.2 1018.9 6.7 SSE 14.1 ESE 0.0 806.0
12:50 20.0 64.5 1018.8 8.5 S 17.3 SE 0.0 676.4
12:55 19.9 65.6 1018.8 7.3 SSE 14.5 SSE 0.0 772.5
Màxima 20.4 100.0 1019.2 18.7 SW 24.7 WSW 0.1 872.0
Mínima 11.5 64.5 1016.0
Total 0.1